Hartland Point — ZIQS6 — position and weather

sailwx.info

Track history (hours):
 
Tides and Currents Weather Stations Pressure Air Temp Water Temp Dewpoint Dewpoint Depression Visibility Wind Speed Wind Dir Waves Ship Positions

Hartland Point

Last reported at 2015-Jan-31 05:32 UTC. Time now 2015-Jan-31 07:05 UTC.
Position N 50°54' W 001°25'.

Length 193 m; draft 5.9 m.

Type: Ship. MMSI: 235505000.

Date/timePositionNaut miles runAvg speedWind from/ knotsBaromVisibWave heightAir tempDewpointWater temp
2015-Jan-31 05:32N 50°54' W 001°25'0 0.0
2015-Jan-31 04:31N 50°54' W 001°25'0 0.0
2015-Jan-31 03:31N 50°54' W 001°25'0 0.0
2015-Jan-31 02:27N 50°54' W 001°25'0 0.0
2015-Jan-31 01:33N 50°54' W 001°25'0 0.0
2015-Jan-31 00:33N 50°54' W 001°25'0 0.0
2015-Jan-30 23:32N 50°54' W 001°25'0 0.0
2015-Jan-30 22:32N 50°54' W 001°25'0 0.0
2015-Jan-30 21:31N 50°54' W 001°25'0 0.0
2015-Jan-30 20:31N 50°54' W 001°25'0 0.0
2015-Jan-30 19:33N 50°54' W 001°25'0 0.0
2015-Jan-30 18:33N 50°54' W 001°25'0 0.0
2015-Jan-30 17:33N 50°54' W 001°25'0 0.0
2015-Jan-30 16:32N 50°54' W 001°25'0 0.0
2015-Jan-30 15:32N 50°54' W 001°25'0 0.0
2015-Jan-30 14:31N 50°54' W 001°25'0 0.0
2015-Jan-30 13:31N 50°54' W 001°25'0 0.0
2015-Jan-30 12:33N 50°54' W 001°25'0 0.0
2015-Jan-30 11:33N 50°54' W 001°25'0 0.0
2015-Jan-30 10:33N 50°54' W 001°25'0 0.0
2015-Jan-30 09:32N 50°54' W 001°25'0 0.0
2015-Jan-30 08:32N 50°54' W 001°25'0 0.0
2015-Jan-30 07:31N 50°54' W 001°25'0 0.0
2015-Jan-30 06:31N 50°54' W 001°25'0 0.0
2015-Jan-30 05:33N 50°54' W 001°25'0 0.0
2015-Jan-30 04:33N 50°54' W 001°25'0 0.0
2015-Jan-30 03:33N 50°54' W 001°25'0 0.0
2015-Jan-30 02:32N 50°54' W 001°25'0 0.0
2015-Jan-30 01:32N 50°54' W 001°25'0 0.0
2015-Jan-30 00:31N 50°54' W 001°25'0 0.0
2015-Jan-29 23:31N 50°54' W 001°25'1 1.4
2015-Jan-29 22:34N 50°53' W 001°24'10 9.6
2015-Jan-29 21:33N 50°46' W 001°13'1110.9
2015-Jan-29 20:33N 50°40' W 000°58'1313.3
2015-Jan-29 19:33N 50°27' W 001°05'3517.5
2015-Jan-29 17:33N 50°11' W 001°54'74917.0
2015-Jan-27 21:25N 39°05' W 009°56'1517.8
2015-Jan-27 20:33N 38°50' W 009°56'1717.5
2015-Jan-27 19:34N 38°33' W 009°53'1817.6
2015-Jan-27 18:32N 38°15' W 009°48'1717.5
2015-Jan-27 17:33N 37°58' W 009°43'1817.8
2015-Jan-27 16:33N 37°41' W 009°38'1817.7
2015-Jan-27 15:33N 37°24' W 009°33'6315.8
2015-Jan-27 11:33N 36°34' W 008°44'15817.5
2015-Jan-27 02:29N 35°59' W 005°32'1516.4
2015-Jan-27 01:34N 36°03' W 005°14'  
2015-Jan-22 13:33N 34°30' E 027°14'1515.4
2015-Jan-22 12:33N 34°30' E 027°32'1615.7
2015-Jan-22 11:33N 34°30' E 027°52'23216.3
2015-Jan-21 21:15N 34°30' E 032°34'1116.7
2015-Jan-21 20:33N 34°30' E 032°47'1616.5
2015-Jan-21 19:33N 34°31' E 033°07'9 9.3
2015-Jan-21 18:33N 34°39' E 033°01'0 0.0
2015-Jan-21 17:32N 34°39' E 033°01'0 0.0
2015-Jan-21 16:32N 34°39' E 033°01'0 0.0
2015-Jan-21 15:31N 34°39' E 033°01'0 0.0
2015-Jan-21 14:31N 34°39' E 033°01'0 0.3
2015-Jan-21 13:33N 34°39' E 033°02'7 6.5
2015-Jan-21 12:34N 34°35' E 033°08'1413.7
2015-Jan-21 11:33N 34°21' E 033°08'  
Track history (hours):
 
Tides and Currents Weather Stations Pressure Air Temp Water Temp Dewpoint Dewpoint Depression Visibility Wind Speed Wind Dir Waves Ship Positions

Hartland Point

Last reported at 2015-Jan-31 05:32 UTC. Time now 2015-Jan-31 07:05 UTC.
Position N 50°54' W 001°25'.

Length 193 m; draft 5.9 m.

Type: Ship. MMSI: 235505000.

Date/timePositionNaut miles runAvg speedWind from/ knotsBaromVisibWave heightAir tempDewpointWater temp
2015-Jan-31 05:32N 50°54' W 001°25'0 0.0
2015-Jan-31 04:31N 50°54' W 001°25'0 0.0
2015-Jan-31 03:31N 50°54' W 001°25'0 0.0
2015-Jan-31 02:27N 50°54' W 001°25'0 0.0
2015-Jan-31 01:33N 50°54' W 001°25'0 0.0
2015-Jan-31 00:33N 50°54' W 001°25'0 0.0
2015-Jan-30 23:32N 50°54' W 001°25'0 0.0
2015-Jan-30 22:32N 50°54' W 001°25'0 0.0
2015-Jan-30 21:31N 50°54' W 001°25'0 0.0
2015-Jan-30 20:31N 50°54' W 001°25'0 0.0
2015-Jan-30 19:33N 50°54' W 001°25'0 0.0
2015-Jan-30 18:33N 50°54' W 001°25'0 0.0
2015-Jan-30 17:33N 50°54' W 001°25'0 0.0
2015-Jan-30 16:32N 50°54' W 001°25'0 0.0
2015-Jan-30 15:32N 50°54' W 001°25'0 0.0
2015-Jan-30 14:31N 50°54' W 001°25'0 0.0
2015-Jan-30 13:31N 50°54' W 001°25'0 0.0
2015-Jan-30 12:33N 50°54' W 001°25'0 0.0
2015-Jan-30 11:33N 50°54' W 001°25'0 0.0
2015-Jan-30 10:33N 50°54' W 001°25'0 0.0
2015-Jan-30 09:32N 50°54' W 001°25'0 0.0
2015-Jan-30 08:32N 50°54' W 001°25'0 0.0
2015-Jan-30 07:31N 50°54' W 001°25'0 0.0
2015-Jan-30 06:31N 50°54' W 001°25'0 0.0
2015-Jan-30 05:33N 50°54' W 001°25'0 0.0
2015-Jan-30 04:33N 50°54' W 001°25'0 0.0
2015-Jan-30 03:33N 50°54' W 001°25'0 0.0
2015-Jan-30 02:32N 50°54' W 001°25'0 0.0
2015-Jan-30 01:32N 50°54' W 001°25'0 0.0
2015-Jan-30 00:31N 50°54' W 001°25'0 0.0
2015-Jan-29 23:31N 50°54' W 001°25'1 1.4
2015-Jan-29 22:34N 50°53' W 001°24'10 9.6
2015-Jan-29 21:33N 50°46' W 001°13'1110.9
2015-Jan-29 20:33N 50°40' W 000°58'1313.3
2015-Jan-29 19:33N 50°27' W 001°05'3517.5
2015-Jan-29 17:33N 50°11' W 001°54'74917.0
2015-Jan-27 21:25N 39°05' W 009°56'1517.8
2015-Jan-27 20:33N 38°50' W 009°56'1717.5
2015-Jan-27 19:34N 38°33' W 009°53'1817.6
2015-Jan-27 18:32N 38°15' W 009°48'1717.5
2015-Jan-27 17:33N 37°58' W 009°43'1817.8
2015-Jan-27 16:33N 37°41' W 009°38'1817.7
2015-Jan-27 15:33N 37°24' W 009°33'6315.8
2015-Jan-27 11:33N 36°34' W 008°44'15817.5
2015-Jan-27 02:29N 35°59' W 005°32'1516.4
2015-Jan-27 01:34N 36°03' W 005°14'  
2015-Jan-22 13:33N 34°30' E 027°14'1515.4
2015-Jan-22 12:33N 34°30' E 027°32'1615.7
2015-Jan-22 11:33N 34°30' E 027°52'23216.3
2015-Jan-21 21:15N 34°30' E 032°34'1116.7
2015-Jan-21 20:33N 34°30' E 032°47'1616.5
2015-Jan-21 19:33N 34°31' E 033°07'9 9.3
2015-Jan-21 18:33N 34°39' E 033°01'0 0.0
2015-Jan-21 17:32N 34°39' E 033°01'0 0.0
2015-Jan-21 16:32N 34°39' E 033°01'0 0.0
2015-Jan-21 15:31N 34°39' E 033°01'0 0.0
2015-Jan-21 14:31N 34°39' E 033°01'0 0.3
2015-Jan-21 13:33N 34°39' E 033°02'7 6.5
2015-Jan-21 12:34N 34°35' E 033°08'1413.7
2015-Jan-21 11:33N 34°21' E 033°08'  

Dump ship's entire track history